createdAt,value
2023-03-12T00:02:22.260Z,98852.69
2023-03-12T00:04:50.373Z,98850.50
2023-03-12T00:07:18.012Z,98863.28
2023-03-12T00:09:45.741Z,98868.06
2023-03-12T00:12:13.766Z,98865.87
2023-03-12T00:14:41.441Z,98866.66
2023-03-12T00:17:09.418Z,98872.75
2023-03-12T00:19:37.527Z,98876.47
2023-03-12T00:22:05.225Z,98881.78
2023-03-12T00:24:32.855Z,98881.03
2023-03-12T00:27:00.806Z,98889.72
2023-03-12T00:29:28.756Z,98903.78
2023-03-12T00:31:56.436Z,98902.72
2023-03-12T00:34:24.366Z,98896.87
2023-03-12T00:36:52.073Z,98901.50
2023-03-12T00:39:19.903Z,98910.13
2023-03-12T00:41:48.947Z,98910.13
2023-03-12T00:44:16.606Z,98907.69
2023-03-12T00:46:44.519Z,98907.41
2023-03-12T00:49:12.622Z,98905.25
2023-03-12T00:51:40.291Z,98907.41
2023-03-12T00:54:08.104Z,98899.25
2023-03-12T00:56:36.034Z,98901.19
2023-03-12T00:59:03.807Z,98898.59
2023-03-12T01:01:31.681Z,98903.53
2023-03-12T01:03:59.790Z,98903.97
2023-03-12T01:06:27.784Z,98920.22
2023-03-12T01:08:55.501Z,98925.78
2023-03-12T01:11:23.576Z,98922.88
2023-03-12T01:13:51.377Z,98924.31
2023-03-12T01:16:19.090Z,98927.34
2023-03-12T01:18:47.132Z,98917.50
2023-03-12T01:21:14.834Z,98918.50
2023-03-12T01:23:42.574Z,98913.59
2023-03-12T01:26:10.741Z,98919.56
2023-03-12T01:28:38.451Z,98915.69
2023-03-12T01:31:08.102Z,98914.03
2023-03-12T01:33:36.400Z,98920.91
2023-03-12T01:36:05.214Z,98922.53
2023-03-12T01:38:33.049Z,98925.53
2023-03-12T01:41:00.991Z,98923.56
2023-03-12T01:43:36.766Z,98929.88
2023-03-12T01:46:23.406Z,98927.22
2023-03-12T01:49:20.720Z,98926.97
2023-03-12T01:52:15.414Z,98934.44
2023-03-12T01:55:07.372Z,98935.41
2023-03-12T01:57:41.289Z,98939.63
2023-03-12T02:00:15.281Z,98938.53
2023-03-12T02:02:44.184Z,98935.78
2023-03-12T02:05:28.229Z,98936.19
2023-03-12T02:07:56.364Z,98932.16
2023-03-12T02:10:24.806Z,98937.03
2023-03-12T02:12:53.005Z,98943.00
2023-03-12T02:15:21.322Z,98948.97
2023-03-12T02:17:49.546Z,98951.75
2023-03-12T02:20:30.355Z,98960.66
2023-03-12T02:23:09.275Z,98956.81
2023-03-12T02:25:39.906Z,98972.87
2023-03-12T02:28:12.648Z,98972.59
2023-03-12T02:30:42.342Z,98971.13
2023-03-12T02:33:12.177Z,98978.88
2023-03-12T02:35:40.036Z,98976.31
2023-03-12T02:38:44.759Z,98982.09
2023-03-12T02:41:36.638Z,98980.41
2023-03-12T02:44:11.792Z,98987.19
2023-03-12T02:46:45.570Z,98989.13
2023-03-12T02:49:14.138Z,98996.47
2023-03-12T02:51:43.248Z,99006.31
2023-03-12T02:54:13.024Z,99007.66
2023-03-12T02:56:40.823Z,99012.50
2023-03-12T02:59:10.477Z,99011.75
2023-03-12T03:01:39.090Z,99011.06
2023-03-12T03:04:09.017Z,99015.81
2023-03-12T03:06:38.920Z,99023.78
2023-03-12T03:09:07.091Z,99034.69
2023-03-12T03:11:35.302Z,99046.91
2023-03-12T03:14:03.820Z,99041.69
2023-03-12T03:16:31.467Z,99047.00
2023-03-12T03:18:59.259Z,99056.44
2023-03-12T03:21:27.683Z,99059.97
2023-03-12T03:23:55.293Z,99056.47
2023-03-12T03:26:24.548Z,99057.53
2023-03-12T03:28:53.236Z,99058.31
2023-03-12T03:31:21.315Z,99067.84
2023-03-12T03:33:49.466Z,99072.19
2023-03-12T03:36:18.172Z,99066.25
2023-03-12T03:38:46.654Z,99074.59
2023-03-12T03:41:14.539Z,99069.16
2023-03-12T03:43:42.886Z,99075.22
2023-03-12T03:46:12.187Z,99085.09
2023-03-12T03:48:41.250Z,99083.25
2023-03-12T03:51:10.384Z,99080.69
2023-03-12T03:53:39.040Z,99076.28
2023-03-12T03:56:12.279Z,99078.44
2023-03-12T03:58:41.071Z,99083.62
2023-03-12T04:01:09.747Z,99090.22
2023-03-12T04:03:38.354Z,99092.59
2023-03-12T04:06:06.885Z,99095.44
2023-03-12T04:08:36.356Z,99092.97
2023-03-12T04:11:19.080Z,99083.97
2023-03-12T04:13:46.989Z,99091.06
2023-03-12T04:16:15.913Z,99092.19
2023-03-12T04:18:44.479Z,99092.28
2023-03-12T04:21:13.589Z,99102.78
2023-03-12T04:23:41.967Z,99094.13
2023-03-12T04:26:10.571Z,99097.16
2023-03-12T04:28:38.571Z,99124.00
2023-03-12T04:31:08.694Z,99130.66
2023-03-12T04:33:38.398Z,99133.22
2023-03-12T04:36:07.448Z,99143.75
2023-03-12T04:38:36.414Z,99151.75
2023-03-12T04:41:07.154Z,99159.00
2023-03-12T04:43:35.602Z,99174.66
2023-03-12T04:46:04.029Z,99174.28
2023-03-12T04:48:32.230Z,99178.66
2023-03-12T04:51:00.116Z,99182.19
2023-03-12T04:53:28.011Z,99187.78
2023-03-12T04:55:56.134Z,99201.06
2023-03-12T04:58:24.442Z,99196.41
2023-03-12T05:00:52.277Z,99184.09
2023-03-12T05:03:20.096Z,99187.06
2023-03-12T05:05:48.097Z,99188.72
2023-03-12T05:08:15.943Z,99193.87
2023-03-12T05:10:43.814Z,99201.22
2023-03-12T05:13:17.601Z,99206.34
2023-03-12T05:15:46.271Z,99202.78
2023-03-12T05:18:14.915Z,99213.41
2023-03-12T05:20:42.766Z,99216.78
2023-03-12T05:23:11.551Z,99216.06
2023-03-12T05:25:40.719Z,99213.91
2023-03-12T05:28:08.901Z,99215.78
2023-03-12T05:30:36.986Z,99227.25
2023-03-12T05:33:05.093Z,99224.47
2023-03-12T05:35:32.816Z,99225.53
2023-03-12T05:38:00.850Z,99231.22
2023-03-12T05:40:28.934Z,99237.59
2023-03-12T05:42:56.744Z,99239.44
2023-03-12T05:45:25.095Z,99247.34
2023-03-12T05:47:53.858Z,99240.81
2023-03-12T05:50:22.002Z,99241.31
2023-03-12T05:52:49.781Z,99242.00
2023-03-12T05:55:18.682Z,99247.53
2023-03-12T05:57:46.638Z,99256.34
2023-03-12T06:00:15.353Z,99254.63
2023-03-12T06:02:45.927Z,99269.41
2023-03-12T06:05:13.713Z,99269.03
2023-03-12T06:07:41.688Z,99275.91
2023-03-12T06:10:11.166Z,99277.91
2023-03-12T06:12:39.057Z,99289.28
2023-03-12T06:15:07.618Z,99288.56
2023-03-12T06:17:37.205Z,99296.28
2023-03-12T06:20:06.489Z,99300.09
2023-03-12T06:22:34.205Z,99313.41
2023-03-12T06:25:02.130Z,99317.81
2023-03-12T06:27:30.274Z,99321.56
2023-03-12T06:29:58.184Z,99333.88
2023-03-12T06:32:26.727Z,99334.06
2023-03-12T06:34:54.379Z,99339.13
2023-03-12T06:37:22.067Z,99336.09
2023-03-12T06:39:50.255Z,99347.63
2023-03-12T06:42:18.185Z,99347.88
2023-03-12T06:44:45.835Z,99351.72
2023-03-12T06:47:15.361Z,99357.44
2023-03-12T06:49:44.153Z,99367.72
2023-03-12T06:52:12.021Z,99362.28
2023-03-12T06:54:40.097Z,99363.44
2023-03-12T06:57:07.874Z,99372.38
2023-03-12T06:59:35.558Z,99372.12
2023-03-12T07:02:04.561Z,99366.47
2023-03-12T07:04:32.387Z,99368.87
2023-03-12T07:07:00.105Z,99373.81
2023-03-12T07:09:28.012Z,99373.06
2023-03-12T07:11:55.724Z,99381.28
2023-03-12T07:14:23.393Z,99379.22
2023-03-12T07:16:51.288Z,99387.97
2023-03-12T07:19:19.207Z,99393.22
2023-03-12T07:21:46.858Z,99400.47
2023-03-12T07:24:14.926Z,99399.13
2023-03-12T07:26:42.640Z,99403.62
2023-03-12T07:29:10.512Z,99411.28
2023-03-12T07:31:38.536Z,99410.69
2023-03-12T07:34:06.689Z,99405.19
2023-03-12T07:36:34.676Z,99408.72
2023-03-12T07:39:03.109Z,99408.09
2023-03-12T07:41:31.096Z,99409.62
2023-03-12T07:43:58.904Z,99413.97
2023-03-12T07:46:26.842Z,99415.84
2023-03-12T07:48:54.545Z,99417.31
2023-03-12T07:51:22.368Z,99422.47
2023-03-12T07:53:50.750Z,99415.25
2023-03-12T07:56:18.671Z,99419.69
2023-03-12T07:58:46.655Z,99414.78
2023-03-12T08:01:17.888Z,99418.97
2023-03-12T08:03:46.234Z,99416.19
2023-03-12T08:06:14.523Z,99416.38
2023-03-12T08:08:42.407Z,99425.75
2023-03-12T08:11:10.674Z,99422.28
2023-03-12T08:13:38.322Z,99426.56
2023-03-12T08:16:08.883Z,99430.66
2023-03-12T08:18:37.489Z,99429.28
2023-03-12T08:21:05.454Z,99422.09
2023-03-12T08:23:33.391Z,99425.09
2023-03-12T08:26:01.673Z,99426.53
2023-03-12T08:28:29.429Z,99429.50
2023-03-12T08:30:59.535Z,99439.69
2023-03-12T08:33:27.642Z,99432.72
2023-03-12T08:35:55.392Z,99436.25
2023-03-12T08:38:23.089Z,99438.63
2023-03-12T08:40:56.413Z,99442.03
2023-03-12T08:43:24.697Z,99439.22
2023-03-12T08:46:00.052Z,99444.53
2023-03-12T08:48:29.420Z,99445.59
2023-03-12T08:50:59.689Z,99455.72
2023-03-12T08:53:27.579Z,99452.00
2023-03-12T08:55:55.807Z,99455.72
2023-03-12T08:58:24.894Z,99458.66
2023-03-12T09:00:53.765Z,99461.34
2023-03-12T09:03:21.863Z,99454.69
2023-03-12T09:05:50.376Z,99455.47
2023-03-12T09:08:18.368Z,99454.66
2023-03-12T09:10:49.655Z,99457.56
2023-03-12T09:13:17.544Z,99456.50
2023-03-12T09:15:45.182Z,99448.97
2023-03-12T09:18:13.142Z,99452.22
2023-03-12T09:20:42.818Z,99454.13
2023-03-12T09:23:11.125Z,99459.72
2023-03-12T09:25:38.828Z,99451.72
2023-03-12T09:28:06.842Z,99446.38
2023-03-12T09:30:34.657Z,99450.78
2023-03-12T09:33:02.437Z,99447.94
2023-03-12T09:35:31.162Z,99441.53
2023-03-12T09:37:59.382Z,99443.00
2023-03-12T09:40:30.602Z,99444.13
2023-03-12T09:43:08.001Z,99439.22
2023-03-12T09:45:42.657Z,99441.12
2023-03-12T09:48:18.845Z,99445.16
2023-03-12T09:50:52.251Z,99439.75
2023-03-12T09:53:37.881Z,99447.41
2023-03-12T09:56:05.903Z,99454.69
2023-03-12T09:58:35.921Z,99441.81
2023-03-12T10:01:12.895Z,99436.94
2023-03-12T10:03:55.694Z,99443.50
2023-03-12T10:06:26.078Z,99451.78
2023-03-12T10:09:03.668Z,99453.00
2023-03-12T10:11:43.574Z,99462.56
2023-03-12T10:14:54.092Z,99451.13
2023-03-12T10:17:31.709Z,99449.31
2023-03-12T10:20:27.733Z,99449.06
2023-03-12T10:23:30.131Z,99456.53
2023-03-12T10:26:00.507Z,99453.03
2023-03-12T10:28:43.180Z,99463.84
2023-03-12T10:31:25.508Z,99458.66
2023-03-12T10:34:01.050Z,99451.25
2023-03-12T10:36:40.512Z,99453.78
2023-03-12T10:39:17.485Z,99457.91
2023-03-12T10:41:47.154Z,99460.56
2023-03-12T10:44:20.493Z,99462.88
2023-03-12T10:46:57.653Z,99461.81
2023-03-12T10:49:28.499Z,99457.25
2023-03-12T10:52:15.895Z,99458.75
2023-03-12T10:54:46.157Z,99459.03
2023-03-12T10:57:15.307Z,99463.75
2023-03-12T10:59:46.396Z,99464.50
2023-03-12T11:02:34.978Z,99464.41
2023-03-12T11:05:07.371Z,99467.13
2023-03-12T11:07:35.611Z,99474.97
2023-03-12T11:10:27.626Z,99471.09
2023-03-12T11:12:57.499Z,99467.97
2023-03-12T11:15:28.808Z,99471.84
2023-03-12T11:18:19.208Z,99463.12
2023-03-12T11:20:51.883Z,99457.84
2023-03-12T11:23:23.322Z,99467.19
2023-03-12T11:25:54.738Z,99457.72
2023-03-12T11:28:34.704Z,99456.84
2023-03-12T11:31:03.256Z,99451.63
2023-03-12T11:33:34.571Z,99455.22
2023-03-12T11:36:20.822Z,99451.38
2023-03-12T11:39:20.732Z,99455.16
2023-03-12T11:41:48.639Z,99448.56
2023-03-12T11:44:23.438Z,99460.22
2023-03-12T11:47:06.832Z,99457.34
2023-03-12T11:49:52.179Z,99450.25
2023-03-12T11:52:34.752Z,99458.91
2023-03-12T11:55:16.629Z,99448.94
2023-03-12T11:58:07.530Z,99447.44
2023-03-12T12:00:47.555Z,99451.19
2023-03-12T12:03:46.604Z,99449.00
2023-03-12T12:06:16.771Z,99441.75
2023-03-12T12:09:19.346Z,99446.19
2023-03-12T12:12:05.669Z,99440.34
2023-03-12T12:14:49.472Z,99436.34
2023-03-12T12:17:34.018Z,99436.69
2023-03-12T12:20:20.287Z,99431.25
2023-03-12T12:23:08.338Z,99431.41
2023-03-12T12:25:57.728Z,99436.53
2023-03-12T12:28:25.457Z,99424.00
2023-03-12T12:31:14.881Z,99426.12
2023-03-12T12:34:11.748Z,99422.00
2023-03-12T12:36:39.614Z,99416.59
2023-03-12T12:39:15.391Z,99417.56
2023-03-12T12:41:56.505Z,99407.81
2023-03-12T12:44:44.853Z,99418.97
2023-03-12T12:47:19.119Z,99416.44
2023-03-12T12:49:49.665Z,99412.81
2023-03-12T12:52:18.620Z,99416.72
2023-03-12T12:55:15.313Z,99412.78
2023-03-12T12:57:54.895Z,99417.69
2023-03-12T13:00:34.637Z,99412.53
2023-03-12T13:03:02.676Z,99415.44
2023-03-12T13:05:36.470Z,99414.37
2023-03-12T13:08:06.315Z,99418.47
2023-03-12T13:10:34.165Z,99409.62
2023-03-12T13:13:11.842Z,99411.50
2023-03-12T13:15:41.603Z,99413.47
2023-03-12T13:18:17.629Z,99422.16
2023-03-12T13:20:51.810Z,99414.37
2023-03-12T13:23:24.946Z,99415.66
2023-03-12T13:26:02.766Z,99410.41
2023-03-12T13:28:31.892Z,99412.31
2023-03-12T13:31:19.338Z,99414.22
2023-03-12T13:33:48.828Z,99415.97
2023-03-12T13:36:17.118Z,99417.53
2023-03-12T13:38:58.852Z,99416.97
2023-03-12T13:41:49.857Z,99416.66
2023-03-12T13:44:23.494Z,99414.81
2023-03-12T13:46:57.528Z,99422.88
2023-03-12T13:49:26.688Z,99433.59
2023-03-12T13:52:18.640Z,99431.03
2023-03-12T13:55:01.284Z,99427.19
2023-03-12T13:57:45.178Z,99422.78
2023-03-12T14:00:46.309Z,99429.00
2023-03-12T14:03:17.322Z,99424.47
2023-03-12T14:06:00.901Z,99434.31
2023-03-12T14:09:26.168Z,99431.97
2023-03-12T14:11:56.792Z,99432.44
2023-03-12T14:14:37.212Z,99434.12
2023-03-12T14:17:11.039Z,99431.28
2023-03-12T14:19:39.057Z,99434.44
2023-03-12T14:22:07.951Z,99438.78
2023-03-12T14:24:50.172Z,99433.84
2023-03-12T14:27:21.871Z,99435.66
2023-03-12T14:30:07.993Z,99436.59
2023-03-12T14:32:37.212Z,99441.50
2023-03-12T14:35:16.406Z,99439.91
2023-03-12T14:38:15.951Z,99443.88
2023-03-12T14:40:51.905Z,99446.38
2023-03-12T14:43:24.273Z,99439.97
2023-03-12T14:45:55.487Z,99440.56
2023-03-12T14:48:28.161Z,99443.38
2023-03-12T14:51:03.878Z,99442.19
2023-03-12T14:53:35.597Z,99452.13
2023-03-12T14:56:08.078Z,99452.19
2023-03-12T14:58:45.920Z,99447.94
2023-03-12T15:01:33.285Z,99442.00
2023-03-12T15:04:03.189Z,99437.34
2023-03-12T15:06:30.799Z,99436.34
2023-03-12T15:09:00.723Z,99438.72
2023-03-12T15:11:30.852Z,99430.91
2023-03-12T15:14:04.211Z,99424.91
2023-03-12T15:16:33.010Z,99435.91
2023-03-12T15:19:02.215Z,99430.41
2023-03-12T15:21:33.480Z,99439.66
2023-03-12T15:24:03.014Z,99442.84
2023-03-12T15:26:32.282Z,99447.25
2023-03-12T15:29:26.318Z,99445.50
2023-03-12T15:31:59.761Z,99445.37
2023-03-12T15:34:33.374Z,99442.63
2023-03-12T15:37:19.311Z,99453.91
2023-03-12T15:39:56.905Z,99454.53
2023-03-12T15:42:26.788Z,99455.50
2023-03-12T15:44:59.804Z,99458.47
2023-03-12T15:47:30.032Z,99468.03
2023-03-12T15:50:01.358Z,99467.16
2023-03-12T15:52:36.025Z,99468.88
2023-03-12T15:55:03.669Z,99472.53
2023-03-12T15:57:33.787Z,99470.34
2023-03-12T16:00:17.185Z,99471.75
2023-03-12T16:02:54.422Z,99476.16
2023-03-12T16:05:26.089Z,99469.28
2023-03-12T16:07:54.766Z,99471.66
2023-03-12T16:10:24.783Z,99479.84
2023-03-12T16:12:58.722Z,99481.13
2023-03-12T16:15:31.359Z,99480.09
2023-03-12T16:17:59.759Z,99483.81
2023-03-12T16:20:28.289Z,99489.25
2023-03-12T16:22:56.044Z,99493.62
2023-03-12T16:25:24.200Z,99492.09
2023-03-12T16:27:57.236Z,99493.13
2023-03-12T16:30:26.647Z,99497.84
2023-03-12T16:32:55.018Z,99497.56
2023-03-12T16:35:23.169Z,99494.72
2023-03-12T16:37:51.177Z,99500.19
2023-03-12T16:40:32.543Z,99502.44
2023-03-12T16:43:03.771Z,99504.59
2023-03-12T16:45:34.955Z,99510.91
2023-03-12T16:48:05.693Z,99520.34
2023-03-12T16:50:34.050Z,99529.09
2023-03-12T16:53:03.072Z,99526.88
2023-03-12T16:55:40.333Z,99535.28
2023-03-12T16:58:11.753Z,99532.19
2023-03-12T17:00:39.538Z,99535.41
2023-03-12T17:03:07.400Z,99531.91
2023-03-12T17:05:35.506Z,99538.09
2023-03-12T17:08:06.968Z,99541.81
2023-03-12T17:10:35.243Z,99546.53
2023-03-12T17:13:03.397Z,99542.28
2023-03-12T17:15:32.419Z,99552.69
2023-03-12T17:18:01.094Z,99553.00
2023-03-12T17:20:29.687Z,99556.03
2023-03-12T17:22:57.648Z,99555.72
2023-03-12T17:25:29.422Z,99560.94
2023-03-12T17:27:57.423Z,99563.16
2023-03-12T17:30:29.847Z,99570.56
2023-03-12T17:33:03.608Z,99571.72
2023-03-12T17:35:32.174Z,99561.06
2023-03-12T17:38:00.597Z,99561.38
2023-03-12T17:40:30.107Z,99561.44
2023-03-12T17:42:58.256Z,99556.38
2023-03-12T17:45:26.404Z,99555.56
2023-03-12T17:47:54.481Z,99570.81
2023-03-12T17:50:22.789Z,99561.78
2023-03-12T17:52:51.122Z,99564.94
2023-03-12T17:55:20.273Z,99566.56
2023-03-12T17:57:48.607Z,99562.91
2023-03-12T18:00:17.140Z,99570.88
2023-03-12T18:02:45.584Z,99564.25
2023-03-12T18:05:13.500Z,99569.56
2023-03-12T18:07:41.472Z,99574.63
2023-03-12T18:10:10.772Z,99574.13
2023-03-12T18:12:38.896Z,99569.53
2023-03-12T18:15:08.282Z,99567.72
2023-03-12T18:17:36.631Z,99575.97
2023-03-12T18:20:06.100Z,99573.78
2023-03-12T18:22:44.706Z,99574.31
2023-03-12T18:25:12.831Z,99570.81
2023-03-12T18:27:40.920Z,99572.16
2023-03-12T18:30:11.184Z,99573.22
2023-03-12T18:32:40.389Z,99575.59
2023-03-12T18:35:08.634Z,99573.75
2023-03-12T18:37:36.292Z,99581.16
2023-03-12T18:40:05.162Z,99582.47
2023-03-12T18:42:33.949Z,99589.37
2023-03-12T18:45:01.961Z,99598.63
2023-03-12T18:47:32.813Z,99601.56
2023-03-12T18:50:03.359Z,99600.22
2023-03-12T18:52:31.787Z,99600.19
2023-03-12T18:54:59.581Z,99594.84
2023-03-12T18:57:27.184Z,99592.72
2023-03-12T19:00:00.156Z,99595.03
2023-03-12T19:02:29.299Z,99597.97
2023-03-12T19:04:57.571Z,99599.03
2023-03-12T19:07:25.464Z,99595.50
2023-03-12T19:09:53.485Z,99603.25
2023-03-12T19:12:21.812Z,99612.78
2023-03-12T19:14:49.811Z,99617.75
2023-03-12T19:17:17.712Z,99625.63
2023-03-12T19:19:48.549Z,99621.97
2023-03-12T19:22:16.496Z,99619.97
2023-03-12T19:24:44.305Z,99605.63
2023-03-12T19:27:14.268Z,99606.81
2023-03-12T19:29:46.014Z,99607.69
2023-03-12T19:32:13.876Z,99601.50
2023-03-12T19:34:44.502Z,99606.38
2023-03-12T19:37:12.336Z,99596.16
2023-03-12T19:39:40.827Z,99593.03
2023-03-12T19:42:15.209Z,99596.63
2023-03-12T19:44:43.830Z,99612.28
2023-03-12T19:47:12.211Z,99617.66
2023-03-12T19:49:41.391Z,99619.06
2023-03-12T19:52:23.455Z,99623.38
2023-03-12T19:55:03.407Z,99628.63
2023-03-12T19:57:35.426Z,99632.88
2023-03-12T20:00:05.157Z,99640.50
2023-03-12T20:02:34.629Z,99646.03
2023-03-12T20:05:03.821Z,99652.69
2023-03-12T20:07:32.498Z,99652.63
2023-03-12T20:10:02.018Z,99644.91
2023-03-12T20:12:32.255Z,99643.75
2023-03-12T20:15:00.787Z,99645.41
2023-03-12T20:17:28.858Z,99642.87
2023-03-12T20:19:57.213Z,99639.62
2023-03-12T20:22:26.493Z,99640.28
2023-03-12T20:24:54.815Z,99630.06
2023-03-12T20:27:23.009Z,99631.84
2023-03-12T20:29:51.599Z,99631.25
2023-03-12T20:32:24.679Z,99639.97
2023-03-12T20:34:52.973Z,99641.56
2023-03-12T20:37:20.633Z,99640.84
2023-03-12T20:39:48.479Z,99639.84
2023-03-12T20:42:16.905Z,99644.91
2023-03-12T20:44:47.687Z,99651.47
2023-03-12T20:47:15.767Z,99654.59
2023-03-12T20:49:44.219Z,99668.84
2023-03-12T20:52:13.003Z,99662.28
2023-03-12T20:54:41.168Z,99652.78
2023-03-12T20:57:09.515Z,99647.66
2023-03-12T20:59:37.755Z,99639.69
2023-03-12T21:02:06.485Z,99641.09
2023-03-12T21:04:34.828Z,99654.03
2023-03-12T21:07:02.660Z,99663.66
2023-03-12T21:09:30.692Z,99662.94
2023-03-12T21:11:58.861Z,99660.84
2023-03-12T21:14:26.809Z,99655.72
2023-03-12T21:16:54.772Z,99657.03
2023-03-12T21:19:23.275Z,99645.59
2023-03-12T21:21:51.070Z,99654.38
2023-03-12T21:24:18.790Z,99665.59
2023-03-12T21:26:46.943Z,99659.94
2023-03-12T21:29:14.637Z,99666.34
2023-03-12T21:31:42.360Z,99663.34
2023-03-12T21:34:10.524Z,99652.38
2023-03-12T21:36:38.240Z,99650.94
2023-03-12T21:39:06.091Z,99648.72
2023-03-12T21:41:34.111Z,99652.97
2023-03-12T21:44:01.956Z,99653.78
2023-03-12T21:46:29.589Z,99649.19
2023-03-12T21:48:58.001Z,99648.13
2023-03-12T21:51:26.589Z,99654.31
2023-03-12T21:53:58.536Z,99657.34
2023-03-12T21:56:26.530Z,99653.50
2023-03-12T21:58:57.288Z,99656.47
2023-03-12T22:01:25.255Z,99655.78
2023-03-12T22:03:53.361Z,99657.13
2023-03-12T22:06:21.387Z,99647.94
2023-03-12T22:08:49.260Z,99643.94
2023-03-12T22:11:18.023Z,99636.63
2023-03-12T22:13:45.951Z,99646.41
2023-03-12T22:16:14.475Z,99643.00
2023-03-12T22:18:44.231Z,99639.28
2023-03-12T22:21:18.474Z,99637.72
2023-03-12T22:23:46.734Z,99633.19
2023-03-12T22:26:14.627Z,99628.28
2023-03-12T22:28:42.368Z,99635.78
2023-03-12T22:31:10.659Z,99635.25
2023-03-12T22:33:38.448Z,99630.94
2023-03-12T22:36:08.227Z,99627.44
2023-03-12T22:38:37.165Z,99636.47
2023-03-12T22:41:24.276Z,99639.03
2023-03-12T22:43:54.218Z,99632.53
2023-03-12T22:46:23.437Z,99630.69
2023-03-12T22:48:56.538Z,99634.34
2023-03-12T22:51:26.739Z,99647.72
2023-03-12T22:53:55.085Z,99646.19
2023-03-12T22:56:23.235Z,99642.19
2023-03-12T22:58:51.626Z,99640.06
2023-03-12T23:01:21.191Z,99643.09
2023-03-12T23:03:49.537Z,99645.06
2023-03-12T23:06:20.428Z,99643.31
2023-03-12T23:08:48.787Z,99644.94
2023-03-12T23:11:17.025Z,99640.84
2023-03-12T23:13:46.162Z,99650.87
2023-03-12T23:16:17.959Z,99669.50
2023-03-12T23:18:46.703Z,99668.72
2023-03-12T23:21:22.252Z,99667.94
2023-03-12T23:23:50.422Z,99676.50
2023-03-12T23:26:24.094Z,99693.97
2023-03-12T23:28:57.724Z,99691.31
2023-03-12T23:31:26.283Z,99704.37
2023-03-12T23:33:54.837Z,99685.06
2023-03-12T23:36:23.229Z,99693.59
2023-03-12T23:38:51.267Z,99698.75
2023-03-12T23:41:24.034Z,99703.59
2023-03-12T23:43:52.115Z,99714.03
2023-03-12T23:46:20.223Z,99715.34
2023-03-12T23:48:48.088Z,99713.69
2023-03-12T23:51:19.020Z,99709.91
2023-03-12T23:53:49.117Z,99700.06
2023-03-12T23:56:21.824Z,99701.28
2023-03-12T23:58:50.928Z,99695.03
